createdAt,value
2019-06-11T06:01:57.519Z,100347.49
2019-06-11T06:04:23.492Z,100354.66
2019-06-11T06:06:55.198Z,100338.75
2019-06-11T06:09:26.368Z,100323.02
2019-06-11T06:11:59.961Z,100320.61
2019-06-11T06:14:32.042Z,100333.91
2019-06-11T06:17:03.405Z,100348.90
2019-06-11T06:19:34.581Z,100355.42
2019-06-11T06:22:05.790Z,100345.94
2019-06-11T06:24:42.956Z,100339.84
2019-06-11T06:27:10.651Z,100343.64
2019-06-11T06:29:41.888Z,100328.05
2019-06-11T06:32:13.061Z,100313.56
2019-06-11T06:34:44.208Z,100308.62
2019-06-11T06:37:15.404Z,100317.45
2019-06-11T06:39:46.559Z,100312.83
2019-06-11T06:42:20.329Z,100312.95
2019-06-11T06:44:51.825Z,100321.30
2019-06-11T06:47:23.714Z,100322.10
2019-06-11T06:49:54.906Z,100324.63
2019-06-11T06:52:26.371Z,100327.84
2019-06-11T06:54:59.786Z,100324.06
2019-06-11T06:57:32.296Z,100323.20
2019-06-11T07:00:09.407Z,100322.46
2019-06-11T07:02:36.811Z,100330.64
2019-06-11T07:05:10.333Z,100334.73
2019-06-11T07:07:46.819Z,100346.38
2019-06-11T07:10:16.135Z,100341.73
2019-06-11T07:12:47.354Z,100340.64
2019-06-11T07:15:20.616Z,100347.02
2019-06-11T07:17:51.696Z,100354.72
2019-06-11T07:20:22.875Z,100355.92
2019-06-11T07:22:54.009Z,100363.97
2019-06-11T07:25:25.201Z,100369.03
2019-06-11T07:27:56.383Z,100377.42
2019-06-11T07:30:29.354Z,100376.20
2019-06-11T07:33:02.134Z,100372.42
2019-06-11T07:35:34.578Z,100377.91
2019-06-11T07:38:06.569Z,100379.09
2019-06-11T07:40:39.066Z,100380.45
2019-06-11T07:43:11.226Z,100388.55
2019-06-11T07:45:46.292Z,100387.11
2019-06-11T07:48:15.480Z,100387.91
2019-06-11T07:50:46.944Z,100375.19
2019-06-11T07:53:20.777Z,100374.52
2019-06-11T07:55:51.465Z,100376.60
2019-06-11T07:58:22.893Z,100376.14
2019-06-11T08:00:55.558Z,100375.39
2019-06-11T08:03:27.114Z,100369.63
2019-06-11T08:06:02.152Z,100382.65
2019-06-11T08:08:32.621Z,100380.09
2019-06-11T08:11:05.204Z,100367.74
2019-06-11T08:13:54.047Z,100367.95
2019-06-11T08:16:15.909Z,100374.08
2019-06-11T08:18:54.658Z,100370.61
2019-06-11T08:21:35.108Z,100358.24
2019-06-11T08:24:01.161Z,100364.75
2019-06-11T08:28:54.631Z,100374.59
2019-06-11T08:31:25.794Z,100365.53
2019-06-11T08:34:01.943Z,100372.50
2019-06-11T08:36:30.920Z,100371.66
2019-06-11T08:39:02.235Z,100369.96
2019-06-11T08:41:34.687Z,100372.97
2019-06-11T08:44:05.984Z,100376.42
2019-06-11T08:46:38.006Z,100376.61
2019-06-11T08:49:11.155Z,100378.62
2019-06-11T08:51:44.233Z,100381.27
2019-06-11T08:54:15.720Z,100375.58
2019-06-11T08:56:47.608Z,100367.55
2019-06-11T08:59:20.833Z,100368.95
2019-06-11T09:01:52.041Z,100357.98
2019-06-11T09:04:23.343Z,100349.77
2019-06-11T09:06:54.515Z,100346.50
2019-06-11T09:09:25.715Z,100351.05
2019-06-11T09:11:56.906Z,100348.02
2019-06-11T09:14:28.179Z,100349.47
2019-06-11T09:17:03.035Z,100359.56
2019-06-11T09:19:32.339Z,100366.97
2019-06-11T09:22:03.542Z,100374.02
2019-06-11T09:24:34.714Z,100378.42
2019-06-11T09:27:05.856Z,100372.69
2019-06-11T09:29:37.053Z,100378.20
2019-06-11T09:32:08.204Z,100381.63
2019-06-11T09:34:41.224Z,100383.59
2019-06-11T09:37:12.277Z,100382.92
2019-06-11T09:39:44.763Z,100386.70
2019-06-11T09:42:16.636Z,100377.92
2019-06-11T09:44:49.670Z,100379.97
2019-06-11T09:47:21.106Z,100384.76
2019-06-11T09:49:55.899Z,100380.56
2019-06-11T09:52:26.856Z,100375.44
2019-06-11T09:55:00.561Z,100375.38
2019-06-11T09:57:31.045Z,100381.42
2019-06-11T10:00:02.235Z,100375.36
2019-06-11T10:02:33.391Z,100365.63
2019-06-11T10:05:04.929Z,100368.66
2019-06-11T10:07:36.093Z,100374.31
2019-06-11T10:10:07.627Z,100365.33
2019-06-11T10:12:40.695Z,100354.32
2019-06-11T10:15:12.074Z,100355.56
2019-06-11T10:17:44.424Z,100344.39
2019-06-11T10:20:15.867Z,100343.86
2019-06-11T10:22:47.065Z,100335.84
2019-06-11T10:25:20.880Z,100345.47
2019-06-11T10:27:57.286Z,100347.58
2019-06-11T10:30:25.747Z,100346.22
2019-06-11T10:32:56.896Z,100339.95
2019-06-11T10:35:28.070Z,100336.88
2019-06-11T10:38:00.450Z,100330.62
2019-06-11T10:40:31.688Z,100337.32
2019-06-11T10:43:02.850Z,100324.71
2019-06-11T10:45:34.039Z,100324.08
2019-06-11T10:48:05.485Z,100329.78
2019-06-11T10:50:36.703Z,100322.20
2019-06-11T10:53:10.917Z,100330.37
2019-06-11T10:55:41.799Z,100324.77
2019-06-11T10:58:13.014Z,100326.67
2019-06-11T11:00:45.230Z,100334.23
2019-06-11T11:03:16.349Z,100320.95
2019-06-11T11:05:47.530Z,100316.48
2019-06-11T11:08:20.583Z,100322.78
2019-06-11T11:10:55.853Z,100323.12
2019-06-11T11:13:24.520Z,100328.21
2019-06-11T11:15:58.327Z,100334.03
2019-06-11T11:18:30.062Z,100344.72
2019-06-11T11:21:02.078Z,100349.23
2019-06-11T11:23:33.277Z,100352.69
2019-06-11T11:26:08.422Z,100361.13
2019-06-11T11:28:37.434Z,100364.38
2019-06-11T11:31:10.735Z,100357.80
2019-06-11T11:33:41.816Z,100355.71
2019-06-11T11:36:13.159Z,100370.59
2019-06-11T11:38:44.324Z,100370.91
2019-06-11T11:41:16.200Z,100377.90
2019-06-11T11:43:49.026Z,100372.13
2019-06-11T11:46:21.221Z,100379.27
2019-06-11T11:48:57.118Z,100380.51
2019-06-11T11:51:30.350Z,100383.56
2019-06-11T11:54:05.435Z,100373.87
2019-06-11T11:56:40.149Z,100380.64
2019-06-11T11:59:11.596Z,100382.02
2019-06-11T12:01:42.866Z,100382.08
2019-06-11T12:04:14.068Z,100382.05
2019-06-11T12:06:47.182Z,100377.20
2019-06-11T12:09:21.097Z,100379.47
2019-06-11T12:11:54.785Z,100384.75
2019-06-11T12:14:24.602Z,100370.61
2019-06-11T12:16:56.323Z,100365.02
2019-06-11T12:19:27.573Z,100365.86
2019-06-11T12:21:58.791Z,100360.13
2019-06-11T12:24:33.237Z,100361.45
2019-06-11T12:27:03.593Z,100342.06
2019-06-11T12:29:34.920Z,100348.30
2019-06-11T12:32:08.228Z,100341.89
2019-06-11T12:38:01.771Z,100344.72
2019-06-11T12:40:33.892Z,100337.66
2019-06-11T12:43:31.156Z,100337.08
2019-06-11T12:45:38.044Z,100334.63
2019-06-11T12:48:11.087Z,100326.57
2019-06-11T12:50:42.465Z,100327.95
2019-06-11T12:53:13.738Z,100332.79
2019-06-11T12:55:45.029Z,100334.28
2019-06-11T12:58:16.206Z,100325.26
2019-06-11T13:00:47.777Z,100314.97
2019-06-11T13:03:23.225Z,100306.47
2019-06-11T13:05:54.927Z,100314.55
2019-06-11T13:08:25.706Z,100320.59
2019-06-11T13:10:57.897Z,100304.50
2019-06-11T13:13:39.634Z,100307.58
2019-06-11T13:16:04.288Z,100321.45
2019-06-11T13:18:35.637Z,100322.58
2019-06-11T13:21:07.307Z,100310.42
2019-06-11T13:23:41.722Z,100311.64
2019-06-11T13:26:11.547Z,100310.34
2019-06-11T13:28:42.743Z,100314.06
2019-06-11T13:31:14.085Z,100308.74
2019-06-11T13:33:45.319Z,100305.41
2019-06-11T13:36:16.606Z,100306.20
2019-06-11T13:38:48.092Z,100308.00
2019-06-11T13:41:21.145Z,100307.87
2019-06-11T13:44:13.243Z,100309.98
2019-06-11T13:46:25.534Z,100310.39
2019-06-11T13:48:59.712Z,100311.59
2019-06-11T13:51:30.640Z,100314.44
2019-06-11T13:54:03.101Z,100327.03
2019-06-11T13:56:34.445Z,100317.37
2019-06-11T13:59:10.455Z,100308.24
2019-06-11T14:01:40.196Z,100300.44
2019-06-11T14:04:11.913Z,100297.11
2019-06-11T14:06:43.109Z,100281.00
2019-06-11T14:09:16.519Z,100289.13
2019-06-11T14:11:47.359Z,100314.72
2019-06-11T14:14:29.143Z,100321.69
2019-06-11T14:16:53.322Z,100321.59
2019-06-11T14:19:24.552Z,100326.80
2019-06-11T14:21:57.134Z,100322.27
2019-06-11T14:24:30.567Z,100322.19
2019-06-11T14:27:03.984Z,100313.62
2019-06-11T14:29:34.550Z,100313.94
2019-06-11T14:32:06.846Z,100320.12
2019-06-11T14:34:40.590Z,100320.22
2019-06-11T14:37:11.155Z,100309.89
2019-06-11T14:39:42.585Z,100308.37
2019-06-11T14:42:13.827Z,100303.42
2019-06-11T14:44:46.427Z,100300.78
2019-06-11T14:47:20.563Z,100294.37
2019-06-11T14:49:50.967Z,100289.34
2019-06-11T14:52:24.266Z,100290.36
2019-06-11T14:54:55.935Z,100291.64
2019-06-11T14:57:27.159Z,100296.05
2019-06-11T14:59:58.528Z,100291.83
2019-06-11T15:02:30.942Z,100291.52
2019-06-11T15:05:04.626Z,100301.45
2019-06-11T15:07:35.277Z,100309.30
2019-06-11T15:10:08.590Z,100309.05
2019-06-11T15:12:40.680Z,100296.11
2019-06-11T15:15:18.945Z,100298.42
2019-06-11T15:17:45.200Z,100297.48
2019-06-11T15:20:24.622Z,100291.77
2019-06-11T15:22:51.492Z,100305.63
2019-06-11T15:25:22.889Z,100301.69
2019-06-11T15:27:54.075Z,100300.13
2019-06-11T15:30:27.778Z,100292.03
2019-06-11T15:33:01.880Z,100278.06
2019-06-11T15:35:31.215Z,100268.13
2019-06-11T15:38:05.033Z,100273.12
2019-06-11T15:40:35.368Z,100271.38
2019-06-11T15:43:17.858Z,100270.84
2019-06-11T15:45:47.805Z,100273.38
2019-06-11T15:48:21.363Z,100292.88
2019-06-11T15:50:53.059Z,100299.92
2019-06-11T15:53:24.388Z,100280.09
2019-06-11T15:55:55.603Z,100286.15
2019-06-11T15:58:26.772Z,100281.66
2019-06-11T16:15:18.041Z,100301.52
2019-06-11T16:17:45.830Z,100301.69
2019-06-11T16:20:18.958Z,100298.86
2019-06-11T16:22:50.885Z,100295.41
2019-06-11T16:25:22.175Z,100305.48
2019-06-11T16:27:54.264Z,100314.78
2019-06-11T16:30:26.431Z,100326.91
2019-06-11T16:32:59.775Z,100323.05
2019-06-11T16:35:31.158Z,100320.41
2019-06-11T16:38:02.466Z,100318.22
2019-06-11T16:40:33.781Z,100316.36
2019-06-11T16:43:26.545Z,100324.38
2019-06-11T16:46:08.284Z,100326.30
2019-06-11T16:48:31.244Z,100323.70
2019-06-11T16:51:03.091Z,100324.09
2019-06-11T16:53:36.375Z,100316.18
2019-06-11T16:56:07.589Z,100318.16
2019-06-11T16:58:40.369Z,100305.08
2019-06-11T17:01:14.725Z,100292.46
2019-06-11T17:03:44.634Z,100293.90
2019-06-11T17:06:16.199Z,100287.27
2019-06-11T17:08:49.927Z,100291.16
2019-06-11T17:11:23.444Z,100286.21
2019-06-11T17:13:53.347Z,100279.12
2019-06-11T17:16:35.505Z,100285.45
2019-06-11T17:18:57.477Z,100282.81
2019-06-11T17:21:30.524Z,100283.88
2019-06-11T17:24:01.798Z,100280.59
2019-06-11T17:26:32.975Z,100283.64
2019-06-11T17:29:04.178Z,100274.52
2019-06-11T17:31:35.349Z,100273.97
2019-06-11T17:34:06.533Z,100275.80
2019-06-11T17:36:40.205Z,100280.40
2019-06-11T17:39:12.216Z,100275.73
2019-06-11T17:41:43.636Z,100273.91
2019-06-11T17:44:14.812Z,100273.94
2019-06-11T17:46:45.973Z,100279.99
2019-06-11T17:49:18.702Z,100277.98
2019-06-11T17:51:51.764Z,100276.08
2019-06-11T17:54:25.943Z,100276.95
2019-06-11T17:56:56.050Z,100276.53
2019-06-11T17:59:30.422Z,100271.95
2019-06-11T18:02:01.202Z,100270.72
2019-06-11T18:04:32.638Z,100270.13
2019-06-11T18:07:04.403Z,100266.41
2019-06-11T18:09:35.765Z,100271.81
2019-06-11T18:12:06.923Z,100274.84
2019-06-11T18:14:40.207Z,100282.81
2019-06-11T18:17:11.026Z,100280.81
2019-06-11T18:19:42.250Z,100279.43
2019-06-11T18:22:13.473Z,100285.86
2019-06-11T18:24:52.609Z,100290.73
2019-06-11T18:27:26.778Z,100291.00
2019-06-11T18:29:56.967Z,100293.98
2019-06-11T18:32:30.409Z,100295.82
2019-06-11T18:35:01.187Z,100303.28
2019-06-11T18:37:33.576Z,100307.01
2019-06-11T18:40:05.347Z,100309.75
2019-06-11T18:42:36.493Z,100315.29
2019-06-11T18:45:10.531Z,100315.94
2019-06-11T18:47:55.297Z,100318.45
2019-06-11T20:02:56.102Z,100317.89
2019-06-11T20:05:27.271Z,100311.72
2019-06-11T20:07:58.445Z,100307.67
2019-06-11T20:10:34.476Z,100300.18
2019-06-11T20:13:02.517Z,100300.37
2019-06-11T20:15:36.459Z,100307.80
2019-06-11T20:18:06.580Z,100300.46
2019-06-11T20:20:37.757Z,100298.80
2019-06-11T20:23:08.956Z,100293.02
2019-06-11T20:25:42.251Z,100289.45
2019-06-11T20:28:12.989Z,100277.86
2019-06-11T20:30:44.117Z,100283.88
2019-06-11T20:34:57.958Z,100285.13
2019-06-11T20:37:31.247Z,100280.20
2019-06-11T20:40:03.189Z,100280.65
2019-06-11T20:42:36.269Z,100276.83
2019-06-11T20:45:10.219Z,100279.93
2019-06-11T20:47:42.124Z,100264.33
2019-06-11T20:50:13.921Z,100266.84
2019-06-11T20:52:45.091Z,100268.98
2019-06-11T20:55:16.778Z,100276.06
2019-06-11T20:57:47.997Z,100272.59
2019-06-11T21:00:21.193Z,100271.62
2019-06-11T21:02:52.680Z,100267.30
2019-06-11T21:05:24.544Z,100263.63
2019-06-11T21:07:55.795Z,100255.10
2019-06-11T21:10:27.155Z,100256.23
2019-06-11T21:12:58.359Z,100248.55
2019-06-11T21:15:30.177Z,100249.89
2019-06-11T21:18:02.755Z,100243.75
2019-06-11T21:20:34.230Z,100242.11
2019-06-11T22:45:30.551Z,100195.40
2019-06-11T23:18:26.515Z,100217.57
2019-06-11T23:20:57.747Z,100214.91
2019-06-11T23:23:30.900Z,100235.02
2019-06-11T23:26:02.265Z,100232.29
2019-06-11T23:28:33.485Z,100217.66
2019-06-11T23:31:04.724Z,100212.72
2019-06-11T23:33:35.881Z,100215.65
2019-06-11T23:36:07.051Z,100214.88
2019-06-11T23:38:40.540Z,100214.15
2019-06-11T23:41:11.153Z,100215.47
2019-06-11T23:43:42.346Z,100221.85
2019-06-11T23:46:13.483Z,100214.45
2019-06-11T23:48:44.708Z,100225.09
2019-06-11T23:51:15.882Z,100228.56
2019-06-11T23:53:47.175Z,100232.23
2019-06-11T23:56:20.007Z,100224.14
2019-06-11T23:58:51.553Z,100224.14
